createdAt,value
2019-05-30T00:01:20.987Z,9.90
2019-05-30T00:03:50.139Z,9.90
2019-05-30T00:06:21.648Z,9.90
2019-05-30T00:08:52.379Z,9.80
2019-05-30T00:11:21.141Z,9.80
2019-05-30T00:13:49.942Z,9.80
2019-05-30T00:16:18.757Z,9.80
2019-05-30T00:18:47.971Z,9.80
2019-05-30T00:21:16.733Z,9.80
2019-05-30T00:23:45.525Z,9.80
2019-05-30T00:26:14.649Z,9.80
2019-05-30T00:28:43.446Z,9.80
2019-05-30T00:31:12.233Z,9.80
2019-05-30T00:33:41.066Z,9.80
2019-05-30T00:36:10.207Z,9.80
2019-05-30T00:38:39.030Z,9.70
2019-05-30T00:41:07.847Z,9.70
2019-05-30T00:43:36.655Z,9.70
2019-05-30T00:46:06.251Z,9.70
2019-05-30T00:48:36.070Z,9.70
2019-05-30T00:51:04.874Z,9.80
2019-05-30T00:53:33.711Z,9.90
2019-05-30T00:56:03.104Z,9.90
2019-05-30T00:58:31.927Z,9.90
2019-05-30T01:01:01.060Z,9.90
2019-05-30T01:03:30.332Z,9.90
2019-05-30T01:05:59.435Z,9.80
2019-05-30T01:08:28.248Z,9.80
2019-05-30T01:10:57.084Z,9.90
2019-05-30T01:13:25.933Z,9.80
2019-05-30T01:15:55.044Z,9.80
2019-05-30T01:18:24.142Z,9.90
2019-05-30T01:20:56.950Z,9.90
2019-05-30T01:23:25.774Z,9.90
2019-05-30T01:25:54.691Z,9.80
2019-05-30T01:28:23.478Z,9.80
2019-05-30T01:31:01.465Z,9.80
2019-05-30T01:33:23.104Z,9.80
2019-05-30T01:35:53.670Z,9.80
2019-05-30T01:38:22.770Z,9.70
2019-05-30T01:40:51.572Z,9.80
2019-05-30T01:43:20.407Z,9.80
2019-05-30T01:45:49.310Z,9.80
2019-05-30T01:48:18.174Z,9.70
2019-05-30T01:50:46.932Z,9.70
2019-05-30T01:53:15.821Z,9.60
2019-05-30T01:55:44.896Z,9.60
2019-05-30T01:58:13.682Z,9.50
2019-05-30T02:00:42.464Z,9.50
2019-05-30T02:03:11.366Z,9.40
2019-05-30T02:05:40.167Z,9.50
2019-05-30T02:08:10.159Z,9.60
2019-05-30T02:10:39.120Z,9.70
2019-05-30T02:13:07.963Z,9.70
2019-05-30T02:15:36.809Z,9.80
2019-05-30T02:18:05.799Z,9.80
2019-05-30T02:20:34.942Z,9.80
2019-05-30T02:23:05.723Z,9.70
2019-05-30T02:25:34.529Z,9.70
2019-05-30T02:28:04.089Z,9.60
2019-05-30T02:30:32.893Z,9.60
2019-05-30T02:33:02.971Z,9.60
2019-05-30T02:35:31.934Z,9.60
2019-05-30T02:38:00.980Z,9.60
2019-05-30T02:40:29.852Z,9.70
2019-05-30T02:42:58.705Z,9.70
2019-05-30T02:45:27.576Z,9.70
2019-05-30T02:47:56.680Z,9.80
2019-05-30T02:50:25.455Z,9.70
2019-05-30T02:52:54.247Z,9.70
2019-05-30T02:55:23.032Z,9.70
2019-05-30T02:57:51.803Z,9.60
2019-05-30T03:00:26.317Z,9.50
2019-05-30T03:02:55.091Z,9.50
2019-05-30T03:05:24.826Z,9.50
2019-05-30T03:07:53.566Z,9.40
2019-05-30T03:10:22.476Z,9.40
2019-05-30T03:12:51.261Z,9.40
2019-05-30T03:15:20.790Z,9.50
2019-05-30T03:17:49.602Z,9.50
2019-05-30T03:20:23.257Z,9.60
2019-05-30T03:22:49.696Z,9.60
2019-05-30T03:25:18.757Z,9.60
2019-05-30T03:27:47.555Z,9.50
2019-05-30T03:30:26.739Z,9.50
2019-05-30T03:33:05.523Z,9.50
2019-05-30T03:35:28.497Z,9.40
2019-05-30T03:37:49.168Z,9.40
2019-05-30T03:40:18.465Z,9.50
2019-05-30T03:42:48.343Z,9.50
2019-05-30T03:45:17.701Z,9.50
2019-05-30T03:47:53.033Z,9.50
2019-05-30T03:50:24.799Z,9.50
2019-05-30T03:52:55.475Z,9.60
2019-05-30T03:55:26.043Z,9.60
2019-05-30T03:58:21.718Z,9.70
2019-05-30T04:01:02.547Z,9.70
2019-05-30T04:03:43.374Z,9.60
2019-05-30T04:06:19.287Z,9.70
2019-05-30T04:08:50.568Z,9.70
2019-05-30T04:11:28.004Z,9.80
2019-05-30T04:14:02.654Z,9.80
2019-05-30T04:16:33.014Z,9.80
2019-05-30T04:19:01.823Z,9.80
2019-05-30T04:21:30.649Z,9.80
2019-05-30T04:23:59.469Z,9.80
2019-05-30T04:26:28.248Z,9.80
2019-05-30T04:28:57.056Z,9.80
2019-05-30T04:31:25.895Z,9.80
2019-05-30T04:33:54.659Z,9.80
2019-05-30T04:36:23.568Z,9.90
2019-05-30T04:38:52.379Z,9.90
2019-05-30T04:41:21.238Z,9.80
2019-05-30T04:43:50.116Z,9.80
2019-05-30T04:46:21.363Z,9.80
2019-05-30T04:48:49.462Z,9.80
2019-05-30T04:51:19.563Z,9.80
2019-05-30T04:53:48.948Z,9.70
2019-05-30T04:56:19.396Z,9.70
2019-05-30T04:58:48.312Z,9.70
2019-05-30T05:01:17.798Z,9.80
2019-05-30T05:03:47.438Z,9.70
2019-05-30T05:06:17.740Z,9.70
2019-05-30T05:08:46.796Z,9.70
2019-05-30T05:11:18.683Z,9.70
2019-05-30T05:13:46.082Z,9.70
2019-05-30T05:16:29.478Z,9.70
2019-05-30T05:18:45.649Z,9.70
2019-05-30T05:21:14.774Z,9.70
2019-05-30T05:23:43.599Z,9.70
2019-05-30T05:26:13.399Z,9.70
2019-05-30T05:28:42.353Z,9.80
2019-05-30T05:31:11.182Z,9.80
2019-05-30T05:33:53.714Z,9.80
2019-05-30T05:36:10.731Z,9.80
2019-05-30T05:38:40.052Z,9.80
2019-05-30T05:41:09.662Z,9.80
2019-05-30T05:43:38.453Z,9.70
2019-05-30T05:46:07.647Z,9.70
2019-05-30T05:48:36.736Z,9.70
2019-05-30T05:51:05.466Z,9.70
2019-05-30T05:53:34.302Z,9.70
2019-05-30T05:56:03.111Z,9.70
2019-05-30T05:58:33.288Z,9.80
2019-05-30T06:01:02.079Z,9.80
2019-05-30T06:03:33.770Z,9.90
2019-05-30T06:06:02.564Z,9.90
2019-05-30T06:08:31.389Z,9.90
2019-05-30T06:11:00.209Z,9.90
2019-05-30T06:13:29.123Z,9.90
2019-05-30T06:15:57.877Z,9.90
2019-05-30T06:18:28.319Z,9.90
2019-05-30T06:20:57.280Z,9.90
2019-05-30T06:23:26.013Z,9.90
2019-05-30T06:25:54.856Z,10.00
2019-05-30T06:28:24.189Z,10.00
2019-05-30T06:30:53.115Z,10.00
2019-05-30T06:33:23.480Z,10.00
2019-05-30T06:35:52.498Z,9.90
2019-05-30T06:38:21.290Z,9.90
2019-05-30T06:40:51.418Z,9.90
2019-05-30T06:43:20.212Z,9.90
2019-05-30T06:45:49.061Z,9.90
2019-05-30T06:48:17.948Z,9.90
2019-05-30T06:50:46.804Z,10.00
2019-05-30T06:53:15.546Z,10.00
2019-05-30T06:55:44.494Z,10.00
2019-05-30T06:58:13.311Z,9.90
2019-05-30T07:00:42.164Z,9.80
2019-05-30T07:03:11.058Z,9.80
2019-05-30T07:05:40.310Z,9.70
2019-05-30T07:08:09.411Z,9.60
2019-05-30T07:10:57.524Z,9.50
2019-05-30T07:13:27.241Z,9.40
2019-05-30T07:15:56.208Z,9.40
2019-05-30T07:18:25.427Z,9.30
2019-05-30T07:20:54.265Z,9.40
2019-05-30T07:23:23.740Z,9.50
2019-05-30T07:25:52.714Z,9.50
2019-05-30T07:28:21.548Z,9.50
2019-05-30T07:30:50.327Z,9.50
2019-05-30T07:33:19.151Z,9.50
2019-05-30T07:35:48.942Z,9.50
2019-05-30T07:38:17.754Z,9.50
2019-05-30T07:40:46.578Z,9.50
2019-05-30T07:43:15.339Z,9.50
2019-05-30T07:45:56.501Z,9.50
2019-05-30T07:48:17.315Z,9.60
2019-05-30T07:50:46.039Z,9.60
2019-05-30T07:53:14.929Z,9.60
2019-05-30T07:55:44.739Z,9.70
2019-05-30T07:58:13.530Z,9.80
2019-05-30T08:00:42.467Z,9.80
2019-05-30T08:03:11.334Z,9.90
2019-05-30T08:05:40.355Z,9.90
2019-05-30T08:08:09.149Z,9.90
2019-05-30T08:10:38.272Z,9.80
2019-05-30T08:13:07.230Z,9.80
2019-05-30T08:15:43.775Z,9.90
2019-05-30T08:18:09.125Z,9.90
2019-05-30T08:20:38.088Z,9.90
2019-05-30T08:23:09.756Z,9.90
2019-05-30T08:25:38.499Z,9.90
2019-05-30T08:28:07.404Z,9.90
2019-05-30T08:30:36.627Z,9.90
2019-05-30T08:33:05.540Z,9.90
2019-05-30T08:35:47.520Z,10.10
2019-05-30T08:38:07.677Z,10.20
2019-05-30T08:40:37.707Z,10.30
2019-05-30T08:43:07.205Z,10.40
2019-05-30T08:45:36.404Z,10.40
2019-05-30T08:48:05.235Z,10.50
2019-05-30T08:50:34.204Z,10.60
2019-05-30T08:53:03.089Z,10.60
2019-05-30T08:55:32.387Z,10.70
2019-05-30T08:58:01.384Z,10.60
2019-05-30T09:00:30.533Z,10.40
2019-05-30T09:02:59.268Z,10.40
2019-05-30T09:05:28.127Z,10.30
2019-05-30T09:07:56.986Z,10.30
2019-05-30T09:10:25.987Z,10.40
2019-05-30T09:12:55.228Z,10.50
2019-05-30T09:15:25.930Z,10.50
2019-05-30T09:17:54.766Z,10.50
2019-05-30T09:20:23.628Z,10.40
2019-05-30T09:22:52.466Z,10.40
2019-05-30T09:25:22.878Z,10.40
2019-05-30T09:27:51.720Z,10.30
2019-05-30T09:30:21.506Z,10.30
2019-05-30T09:32:50.303Z,10.40
2019-05-30T09:35:19.396Z,10.50
2019-05-30T09:37:49.366Z,10.50
2019-05-30T09:40:18.942Z,10.50
2019-05-30T09:42:48.698Z,10.70
2019-05-30T09:45:19.249Z,10.60
2019-05-30T09:47:49.318Z,10.60
2019-05-30T09:50:20.336Z,10.70
2019-05-30T09:52:49.453Z,10.60
2019-05-30T09:55:20.990Z,10.50
2019-05-30T09:57:49.837Z,10.50
2019-05-30T10:00:20.763Z,10.50
2019-05-30T10:02:50.540Z,10.40
2019-05-30T10:05:23.357Z,10.40
2019-05-30T10:07:50.864Z,10.50
2019-05-30T10:10:20.082Z,10.40
2019-05-30T10:12:50.213Z,10.30
2019-05-30T10:15:19.830Z,10.30
2019-05-30T10:17:51.840Z,10.40
2019-05-30T10:20:19.497Z,10.50
2019-05-30T10:22:50.085Z,10.60
2019-05-30T10:25:18.844Z,10.60
2019-05-30T10:27:48.891Z,10.50
2019-05-30T10:30:18.533Z,10.50
2019-05-30T10:32:48.555Z,10.40
2019-05-30T10:35:17.823Z,10.40
2019-05-30T10:37:47.136Z,10.30
2019-05-30T10:40:16.849Z,10.40
2019-05-30T10:42:46.175Z,10.50
2019-05-30T10:45:16.512Z,10.40
2019-05-30T10:47:46.276Z,10.20
2019-05-30T10:50:16.102Z,10.30
2019-05-30T10:52:45.366Z,10.30
2019-05-30T10:55:15.083Z,10.40
2019-05-30T10:57:43.859Z,10.70
2019-05-30T11:00:15.519Z,10.70
2019-05-30T11:02:44.247Z,10.70
2019-05-30T11:05:14.143Z,10.60
2019-05-30T11:08:08.618Z,10.70
2019-05-30T11:10:46.355Z,10.70
2019-05-30T11:13:16.605Z,10.70
2019-05-30T11:15:46.901Z,10.50
2019-05-30T11:18:16.094Z,10.50
2019-05-30T11:20:44.903Z,10.50
2019-05-30T11:23:13.714Z,10.60
2019-05-30T11:25:42.474Z,10.70
2019-05-30T11:28:11.379Z,10.80
2019-05-30T11:30:40.174Z,10.80
2019-05-30T11:33:09.032Z,10.80
2019-05-30T11:35:38.208Z,11.00
2019-05-30T11:38:07.302Z,11.00
2019-05-30T11:40:38.858Z,11.00
2019-05-30T11:43:08.630Z,11.20
2019-05-30T11:45:37.403Z,11.30
2019-05-30T11:48:06.202Z,11.50
2019-05-30T11:50:35.007Z,11.60
2019-05-30T11:53:05.092Z,11.80
2019-05-30T11:55:36.429Z,11.80
2019-05-30T11:58:05.420Z,11.70
2019-05-30T12:00:34.373Z,11.90
2019-05-30T12:03:03.205Z,12.00
2019-05-30T12:05:32.883Z,11.90
2019-05-30T12:08:01.680Z,11.70
2019-05-30T12:10:30.665Z,11.70
2019-05-30T12:12:59.547Z,11.80
2019-05-30T12:15:28.550Z,11.90
2019-05-30T12:17:57.504Z,11.80
2019-05-30T12:20:27.010Z,11.70
2019-05-30T12:22:56.125Z,11.60
2019-05-30T12:25:24.945Z,11.70
2019-05-30T12:27:54.009Z,11.80
2019-05-30T12:30:23.752Z,11.90
2019-05-30T12:32:52.698Z,11.90
2019-05-30T12:35:21.902Z,11.90
2019-05-30T12:37:56.181Z,11.80
2019-05-30T12:40:24.722Z,11.80
2019-05-30T12:42:58.913Z,11.80
2019-05-30T12:45:26.832Z,11.70
2019-05-30T12:47:55.679Z,11.40
2019-05-30T12:50:24.488Z,11.40
2019-05-30T12:52:53.485Z,11.40
2019-05-30T12:55:22.541Z,11.40
2019-05-30T12:57:51.350Z,11.30
2019-05-30T13:00:29.050Z,11.40
2019-05-30T13:02:58.807Z,11.30
2019-05-30T13:05:27.590Z,11.20
2019-05-30T13:08:11.737Z,11.30
2019-05-30T13:10:26.893Z,11.20
2019-05-30T13:12:56.031Z,11.30
2019-05-30T13:15:25.226Z,11.40
2019-05-30T13:17:55.614Z,11.40
2019-05-30T13:20:24.556Z,11.40
2019-05-30T13:22:53.394Z,11.30
2019-05-30T13:25:23.397Z,11.20
2019-05-30T13:27:52.192Z,11.20
2019-05-30T13:30:21.373Z,11.30
2019-05-30T13:32:50.174Z,11.40
2019-05-30T13:35:19.070Z,11.60
2019-05-30T13:37:47.892Z,11.70
2019-05-30T13:40:24.809Z,11.60
2019-05-30T13:42:49.257Z,11.70
2019-05-30T13:45:18.459Z,11.70
2019-05-30T13:47:47.324Z,11.80
2019-05-30T13:50:16.570Z,11.70
2019-05-30T13:52:45.386Z,11.70
2019-05-30T13:55:14.598Z,11.60
2019-05-30T13:57:43.473Z,11.60
2019-05-30T14:00:14.113Z,11.60
2019-05-30T14:02:42.922Z,11.70
2019-05-30T14:05:12.155Z,11.70
2019-05-30T14:07:40.957Z,11.60
2019-05-30T14:10:10.900Z,11.50
2019-05-30T14:12:39.836Z,11.40
2019-05-30T14:15:15.350Z,11.30
2019-05-30T14:17:44.458Z,11.20
2019-05-30T14:20:14.056Z,11.20
2019-05-30T14:22:42.841Z,11.30
2019-05-30T14:25:13.246Z,11.10
2019-05-30T14:27:42.051Z,11.00
2019-05-30T14:30:13.065Z,11.10
2019-05-30T14:32:42.053Z,11.10
2019-05-30T14:35:13.318Z,11.00
2019-05-30T14:37:41.644Z,10.90
2019-05-30T14:40:15.577Z,10.80
2019-05-30T14:42:44.383Z,10.80
2019-05-30T14:45:16.654Z,10.70
2019-05-30T14:47:45.754Z,10.90
2019-05-30T14:50:15.408Z,10.80
2019-05-30T14:52:44.210Z,10.70
2019-05-30T14:55:13.451Z,10.60
2019-05-30T14:57:43.347Z,10.60
2019-05-30T15:00:14.547Z,10.60
2019-05-30T15:02:44.334Z,10.40
2019-05-30T15:05:13.974Z,10.40
2019-05-30T15:07:43.061Z,10.40
2019-05-30T15:10:12.854Z,10.30
2019-05-30T15:12:41.708Z,10.30
2019-05-30T15:15:14.298Z,10.10
2019-05-30T15:17:41.618Z,10.10
2019-05-30T15:20:12.184Z,10.10
2019-05-30T15:22:41.371Z,10.10
2019-05-30T15:25:11.946Z,10.10
2019-05-30T15:27:40.993Z,10.10
2019-05-30T15:30:12.460Z,10.10
2019-05-30T15:32:41.331Z,10.10
2019-05-30T15:35:11.007Z,10.20
2019-05-30T15:37:40.898Z,10.20
2019-05-30T15:40:11.071Z,10.10
2019-05-30T15:42:39.923Z,10.00
2019-05-30T15:45:09.921Z,9.90
2019-05-30T15:47:39.906Z,9.90
2019-05-30T15:50:10.498Z,9.90
2019-05-30T15:52:39.822Z,9.80
2019-05-30T15:55:09.514Z,9.80
2019-05-30T15:57:38.242Z,9.70
2019-05-30T16:00:12.350Z,9.70
2019-05-30T16:02:41.530Z,9.60
2019-05-30T16:05:14.582Z,9.50
2019-05-30T16:07:43.469Z,9.50
2019-05-30T16:10:12.960Z,9.50
2019-05-30T16:12:41.738Z,9.50
2019-05-30T16:15:11.663Z,9.50
2019-05-30T16:17:40.650Z,9.50
2019-05-30T16:20:10.076Z,9.50
2019-05-30T16:22:38.878Z,9.40
2019-05-30T16:25:08.519Z,9.40
2019-05-30T16:27:37.379Z,9.40
2019-05-30T16:30:09.101Z,9.40
2019-05-30T16:32:38.213Z,9.50
2019-05-30T16:35:11.501Z,9.50
2019-05-30T16:37:40.328Z,9.50
2019-05-30T16:40:09.710Z,9.50
2019-05-30T16:42:38.497Z,9.50
2019-05-30T16:45:10.044Z,9.50
2019-05-30T16:47:38.868Z,9.50
2019-05-30T16:50:08.812Z,9.50
2019-05-30T16:52:38.416Z,9.50
2019-05-30T16:55:08.223Z,9.50
2019-05-30T16:57:37.067Z,9.50
2019-05-30T17:00:12.160Z,9.40
2019-05-30T17:02:41.000Z,9.40
2019-05-30T17:05:10.324Z,9.50
2019-05-30T17:07:39.084Z,9.30
2019-05-30T17:10:22.172Z,9.30
2019-05-30T17:12:39.266Z,9.40
2019-05-30T17:15:09.627Z,9.40
2019-05-30T17:17:38.482Z,9.30
2019-05-30T17:20:09.524Z,9.30
2019-05-30T17:22:38.421Z,9.30
2019-05-30T17:25:07.747Z,9.20
2019-05-30T17:27:36.580Z,9.20
2019-05-30T17:30:09.723Z,9.30
2019-05-30T17:32:38.921Z,9.20
2019-05-30T17:35:08.567Z,9.30
2019-05-30T17:37:37.560Z,9.30
2019-05-30T17:40:10.730Z,9.30
2019-05-30T17:42:39.353Z,9.30
2019-05-30T17:45:10.223Z,9.40
2019-05-30T17:47:39.313Z,9.40
2019-05-30T17:50:09.303Z,9.40
2019-05-30T17:52:38.101Z,9.50
2019-05-30T17:55:07.954Z,9.50
2019-05-30T17:57:37.257Z,9.60
2019-05-30T18:00:15.592Z,9.60
2019-05-30T18:02:44.451Z,9.60
2019-05-30T18:05:14.028Z,9.70
2019-05-30T18:07:42.748Z,9.60
2019-05-30T18:10:13.356Z,9.50
2019-05-30T18:12:42.158Z,9.50
2019-05-30T18:15:13.178Z,9.40
2019-05-30T18:17:41.917Z,9.40
2019-05-30T18:20:11.612Z,9.40
2019-05-30T18:22:40.787Z,9.40
2019-05-30T18:25:10.975Z,9.40
2019-05-30T18:27:39.770Z,9.40
2019-05-30T18:30:10.215Z,9.40
2019-05-30T18:32:39.048Z,9.40
2019-05-30T18:35:08.637Z,9.40
2019-05-30T18:37:38.829Z,9.40
2019-05-30T18:40:08.425Z,9.30
2019-05-30T18:42:37.444Z,9.30
2019-05-30T18:45:08.684Z,9.30
2019-05-30T18:47:37.481Z,9.20
2019-05-30T18:50:08.009Z,9.20
2019-05-30T18:52:37.013Z,9.20
2019-05-30T18:55:07.488Z,9.20
2019-05-30T18:57:37.450Z,9.20
2019-05-30T19:00:08.576Z,9.20
2019-05-30T19:02:37.777Z,9.10
2019-05-30T19:05:08.106Z,9.10
2019-05-30T19:07:37.181Z,9.10
2019-05-30T19:10:06.602Z,9.10
2019-05-30T19:12:36.497Z,9.10
2019-05-30T19:15:07.880Z,9.10
2019-05-30T19:17:36.718Z,9.00
2019-05-30T19:20:09.311Z,9.00
2019-05-30T19:22:41.384Z,9.00
2019-05-30T19:25:08.859Z,9.00
2019-05-30T19:27:38.622Z,9.00
2019-05-30T19:30:09.105Z,9.00
2019-05-30T19:32:38.163Z,9.00
2019-05-30T19:35:08.113Z,9.00
2019-05-30T19:37:37.588Z,9.00
2019-05-30T19:40:08.162Z,8.90
2019-05-30T19:42:37.852Z,8.90
2019-05-30T19:45:08.981Z,8.90
2019-05-30T19:47:38.779Z,8.90
2019-05-30T19:50:10.101Z,8.90
2019-05-30T19:52:39.200Z,8.80
2019-05-30T19:55:08.491Z,8.80
2019-05-30T19:57:37.788Z,8.80
2019-05-30T20:00:08.781Z,8.80
2019-05-30T20:02:38.327Z,8.80
2019-05-30T20:05:09.312Z,8.80
2019-05-30T20:07:38.879Z,8.80
2019-05-30T20:10:08.229Z,8.80
2019-05-30T20:12:37.200Z,8.70
2019-05-30T20:15:11.349Z,8.70
2019-05-30T20:17:41.713Z,8.70
2019-05-30T20:20:12.082Z,8.70
2019-05-30T20:22:42.229Z,8.70
2019-05-30T20:25:12.042Z,8.70
2019-05-30T20:27:40.965Z,8.70
2019-05-30T20:30:11.637Z,8.60
2019-05-30T20:32:40.867Z,8.70
2019-05-30T20:35:10.133Z,8.60
2019-05-30T20:37:38.928Z,8.60
2019-05-30T20:40:09.118Z,8.60
2019-05-30T20:42:38.997Z,8.60
2019-05-30T20:45:10.236Z,8.60
2019-05-30T20:47:41.267Z,8.60
2019-05-30T20:50:10.368Z,8.60
2019-05-30T20:52:42.264Z,8.60
2019-05-30T20:55:09.731Z,8.60
2019-05-30T20:57:38.894Z,8.60
2019-05-30T21:00:09.794Z,8.50
2019-05-30T21:02:39.109Z,8.50
2019-05-30T21:05:08.640Z,8.50
2019-05-30T21:07:37.838Z,8.50
2019-05-30T21:10:07.734Z,8.50
2019-05-30T21:12:41.056Z,8.50
2019-05-30T21:15:08.415Z,8.60
2019-05-30T21:17:37.727Z,8.70
2019-05-30T21:20:11.119Z,8.70
2019-05-30T21:22:38.422Z,8.60
2019-05-30T21:25:11.735Z,8.50
2019-05-30T21:27:40.884Z,8.40
2019-05-30T21:30:11.555Z,8.30
2019-05-30T21:32:41.910Z,8.30
2019-05-30T21:35:11.513Z,8.30
2019-05-30T21:37:41.770Z,8.30
2019-05-30T21:40:11.095Z,8.40
2019-05-30T21:42:55.678Z,8.30
2019-05-30T21:45:10.516Z,8.30
2019-05-30T21:47:40.330Z,8.30
2019-05-30T21:50:10.155Z,8.30
2019-05-30T21:52:39.442Z,8.40
2019-05-30T21:55:09.257Z,8.40
2019-05-30T21:57:38.053Z,8.40
2019-05-30T22:00:16.905Z,8.40
2019-05-30T22:02:54.215Z,8.40
2019-05-30T22:05:23.640Z,8.40
2019-05-30T22:07:52.434Z,8.40
2019-05-30T22:10:21.234Z,8.30
2019-05-30T22:12:50.058Z,8.30
2019-05-30T22:15:19.006Z,8.20
2019-05-30T22:17:48.201Z,8.20
2019-05-30T22:20:17.075Z,8.10
2019-05-30T22:22:46.216Z,8.10
2019-05-30T22:25:15.197Z,8.20
2019-05-30T22:27:44.539Z,8.20
2019-05-30T22:30:13.807Z,8.10
2019-05-30T22:32:46.554Z,8.10
2019-05-30T22:35:15.530Z,8.10
2019-05-30T22:37:44.795Z,8.10
2019-05-30T22:40:14.045Z,8.10
2019-05-30T22:42:44.049Z,8.10
2019-05-30T22:45:12.970Z,8.10
2019-05-30T22:47:41.712Z,8.00
2019-05-30T22:50:10.528Z,8.10
2019-05-30T22:52:39.388Z,8.10
2019-05-30T22:55:08.601Z,8.10
2019-05-30T22:57:37.322Z,8.10
2019-05-30T23:00:07.866Z,8.10
2019-05-30T23:02:36.656Z,8.10
2019-05-30T23:05:08.515Z,8.20
2019-05-30T23:07:37.403Z,8.20
2019-05-30T23:10:06.866Z,8.20
2019-05-30T23:12:35.653Z,8.20
2019-05-30T23:15:06.607Z,8.10
2019-05-30T23:17:35.439Z,8.20
2019-05-30T23:20:08.760Z,8.10
2019-05-30T23:22:37.589Z,8.10
2019-05-30T23:25:08.358Z,8.10
2019-05-30T23:27:37.475Z,8.10
2019-05-30T23:30:07.598Z,8.10
2019-05-30T23:32:36.389Z,8.10
2019-05-30T23:35:06.013Z,8.00
2019-05-30T23:37:34.821Z,7.90
2019-05-30T23:40:04.347Z,7.90
2019-05-30T23:42:33.142Z,7.80
2019-05-30T23:45:01.968Z,7.80
2019-05-30T23:47:31.276Z,7.70
2019-05-30T23:50:00.554Z,7.70
2019-05-30T23:52:29.385Z,7.60
2019-05-30T23:54:58.336Z,7.60
2019-05-30T23:57:27.149Z,7.60
2019-05-30T23:59:56.830Z,7.60
